createdAt,value
2018-06-09T00:00:50.639Z,0.00
2018-06-09T00:01:50.627Z,0.00
2018-06-09T00:02:50.628Z,0.00
2018-06-09T00:03:50.635Z,0.00
2018-06-09T00:04:50.635Z,0.00
2018-06-09T00:05:50.630Z,0.00
2018-06-09T00:06:50.630Z,0.00
2018-06-09T00:07:50.631Z,0.00
2018-06-09T00:08:50.631Z,0.00
2018-06-09T00:09:50.636Z,0.00
2018-06-09T00:10:50.637Z,0.00
2018-06-09T00:11:50.638Z,0.00
2018-06-09T00:12:50.638Z,0.00
2018-06-09T00:13:50.635Z,0.00
2018-06-09T00:14:50.636Z,0.00
2018-06-09T00:15:50.637Z,0.00
2018-06-09T00:16:50.636Z,0.00
2018-06-09T00:17:50.641Z,0.00
2018-06-09T00:18:50.644Z,0.00
2018-06-09T00:19:50.640Z,0.00
2018-06-09T00:20:50.639Z,0.00
2018-06-09T00:21:50.645Z,0.00
2018-06-09T00:22:50.648Z,0.00
2018-06-09T00:23:50.645Z,0.00
2018-06-09T00:24:50.647Z,0.00
2018-06-09T00:25:50.642Z,0.00
2018-06-09T00:26:50.643Z,0.00
2018-06-09T00:27:50.643Z,0.00
2018-06-09T00:28:50.645Z,0.00
2018-06-09T00:29:50.649Z,0.00
2018-06-09T00:30:50.653Z,0.00
2018-06-09T00:31:50.649Z,0.00
2018-06-09T00:32:50.650Z,0.00
2018-06-09T00:33:50.649Z,0.00
2018-06-09T00:34:50.647Z,0.00
2018-06-09T00:35:50.678Z,0.00
2018-06-09T00:36:50.653Z,0.00
2018-06-09T00:37:50.651Z,0.00
2018-06-09T00:38:50.651Z,0.00
2018-06-09T00:39:50.650Z,0.00
2018-06-09T00:40:50.650Z,0.00
2018-06-09T00:41:50.657Z,0.00
2018-06-09T00:42:50.656Z,0.00
2018-06-09T00:43:50.659Z,0.00
2018-06-09T00:44:50.658Z,0.00
2018-06-09T00:45:50.654Z,0.00
2018-06-09T00:46:50.654Z,0.00
2018-06-09T00:47:50.656Z,0.00
2018-06-09T00:48:50.655Z,0.00
2018-06-09T00:49:50.659Z,0.00
2018-06-09T00:50:50.661Z,0.00
2018-06-09T00:51:50.657Z,0.00
2018-06-09T00:52:50.657Z,0.00
2018-06-09T00:53:50.661Z,0.00
2018-06-09T00:54:50.664Z,0.00
2018-06-09T00:55:50.665Z,0.00
2018-06-09T00:56:50.665Z,0.00
2018-06-09T00:57:50.661Z,0.00
2018-06-09T00:58:50.660Z,0.00
2018-06-09T00:59:50.661Z,0.00
2018-06-09T01:00:50.661Z,0.00
2018-06-09T01:01:50.667Z,0.00
2018-06-09T01:02:50.668Z,0.00
2018-06-09T01:03:50.667Z,0.00
2018-06-09T01:04:50.666Z,0.00
2018-06-09T01:05:50.663Z,0.00
2018-06-09T01:06:50.667Z,0.00
2018-06-09T01:07:50.669Z,0.00
2018-06-09T01:08:50.669Z,0.00
2018-06-09T01:09:50.666Z,0.00
2018-06-09T01:10:50.664Z,0.00
2018-06-09T01:11:50.670Z,0.00
2018-06-09T01:12:50.664Z,0.00
2018-06-09T01:13:50.670Z,0.00
2018-06-09T01:14:50.670Z,0.00
2018-06-09T01:15:50.670Z,0.00
2018-06-09T01:16:50.671Z,0.00
2018-06-09T01:17:50.664Z,0.00
2018-06-09T01:18:50.664Z,0.00
2018-06-09T01:19:50.666Z,0.00
2018-06-09T01:20:50.667Z,0.00
2018-06-09T01:21:50.669Z,0.00
2018-06-09T01:22:50.669Z,0.00
2018-06-09T01:23:50.665Z,0.00
2018-06-09T01:24:50.665Z,0.00
2018-06-09T01:25:50.669Z,0.00
2018-06-09T01:26:50.669Z,0.00
2018-06-09T01:27:50.669Z,0.00
2018-06-09T01:28:50.670Z,0.00
2018-06-09T01:29:50.664Z,0.00
2018-06-09T01:30:50.665Z,0.00
2018-06-09T01:31:50.667Z,0.00
2018-06-09T01:32:50.665Z,0.00
2018-06-09T01:33:50.674Z,0.00
2018-06-09T01:34:50.671Z,0.00
2018-06-09T01:35:50.670Z,0.00
2018-06-09T01:36:50.673Z,0.00
2018-06-09T01:37:50.664Z,0.00
2018-06-09T01:38:50.664Z,0.00
2018-06-09T01:39:50.669Z,0.00
2018-06-09T01:40:50.668Z,0.00
2018-06-09T01:41:50.662Z,0.00
2018-06-09T01:42:50.662Z,0.00
2018-06-09T01:43:50.662Z,0.00
2018-06-09T01:44:50.663Z,0.00
2018-06-09T01:45:50.666Z,0.00
2018-06-09T01:46:50.666Z,0.00
2018-06-09T01:47:50.666Z,0.00
2018-06-09T01:48:50.665Z,0.00
2018-06-09T01:49:50.661Z,0.00
2018-06-09T01:50:50.661Z,0.00
2018-06-09T01:51:50.661Z,0.00
2018-06-09T01:52:50.660Z,0.00
2018-06-09T01:53:50.666Z,0.00
2018-06-09T01:54:50.666Z,0.00
2018-06-09T01:55:50.661Z,0.00
2018-06-09T01:56:50.661Z,0.00
2018-06-09T01:57:50.665Z,0.00
2018-06-09T01:58:50.666Z,0.00
2018-06-09T01:59:50.665Z,0.00
2018-06-09T02:00:50.664Z,0.00
2018-06-09T02:01:50.659Z,0.00
2018-06-09T02:02:50.659Z,0.00
2018-06-09T02:03:50.664Z,0.00
2018-06-09T02:04:50.662Z,0.00
2018-06-09T02:05:50.664Z,0.00
2018-06-09T02:06:50.664Z,0.00
2018-06-09T02:07:50.665Z,0.00
2018-06-09T02:08:50.664Z,0.00
2018-06-09T02:09:50.659Z,0.00
2018-06-09T02:10:50.659Z,0.00
2018-06-09T02:11:50.666Z,0.00
2018-06-09T02:12:50.663Z,0.00
2018-06-09T02:13:50.658Z,0.00
2018-06-09T02:14:50.659Z,0.00
2018-06-09T02:15:50.658Z,0.00
2018-06-09T02:16:50.657Z,0.00
2018-06-09T02:17:50.662Z,0.00
2018-06-09T02:18:50.662Z,0.00
2018-06-09T02:19:50.662Z,0.00
2018-06-09T02:20:50.661Z,0.00
2018-06-09T02:21:50.661Z,0.00
2018-06-09T02:22:50.662Z,0.00
2018-06-09T02:23:50.657Z,0.00
2018-06-09T02:24:50.656Z,0.00
2018-06-09T02:25:50.664Z,0.00
2018-06-09T02:26:50.661Z,0.00
2018-06-09T02:27:50.657Z,0.00
2018-06-09T02:28:50.656Z,0.00
2018-06-09T02:29:50.659Z,0.00
2018-06-09T02:30:50.665Z,0.00
2018-06-09T02:31:50.663Z,0.00
2018-06-09T02:32:50.658Z,0.00
2018-06-09T02:33:50.654Z,0.00
2018-06-09T02:34:50.660Z,0.00
2018-06-09T02:35:50.654Z,0.00
2018-06-09T02:36:50.653Z,0.00
2018-06-09T02:37:50.660Z,0.00
2018-06-09T02:38:50.657Z,0.00
2018-06-09T02:39:50.657Z,0.00
2018-06-09T02:40:50.655Z,0.00
2018-06-09T02:41:50.650Z,4.00
2018-06-09T02:42:50.650Z,4.00
2018-06-09T02:43:50.655Z,4.00
2018-06-09T02:44:50.654Z,4.00
2018-06-09T02:45:50.649Z,4.00
2018-06-09T02:46:50.649Z,4.00
2018-06-09T02:47:50.651Z,4.00
2018-06-09T02:48:50.651Z,8.00
2018-06-09T02:49:50.653Z,4.00
2018-06-09T02:50:50.653Z,8.00
2018-06-09T02:51:50.656Z,8.00
2018-06-09T02:52:50.651Z,8.00
2018-06-09T02:53:50.645Z,8.00
2018-06-09T02:54:50.650Z,12.00
2018-06-09T02:55:50.645Z,16.00
2018-06-09T02:56:50.644Z,16.00
2018-06-09T02:57:50.648Z,16.00
2018-06-09T02:58:50.647Z,16.00
2018-06-09T02:59:50.644Z,20.00
2018-06-09T03:00:50.641Z,24.00
2018-06-09T03:01:50.649Z,24.00
2018-06-09T03:02:50.645Z,28.00
2018-06-09T03:03:50.647Z,36.00
2018-06-09T03:04:50.644Z,40.00
2018-06-09T03:05:50.640Z,44.00
2018-06-09T03:06:50.639Z,48.00
2018-06-09T03:07:50.639Z,52.00
2018-06-09T03:08:50.639Z,56.00
2018-06-09T03:09:50.643Z,60.00
2018-06-09T03:10:50.641Z,68.00
2018-06-09T03:11:50.640Z,72.00
2018-06-09T03:12:50.639Z,76.00
2018-06-09T03:13:50.634Z,88.00
2018-06-09T03:14:50.634Z,92.00
2018-06-09T03:15:50.638Z,100.00
2018-06-09T03:16:50.636Z,108.00
2018-06-09T03:17:50.631Z,116.00
2018-06-09T03:18:50.631Z,128.00
2018-06-09T03:19:50.631Z,136.00
2018-06-09T03:20:50.629Z,148.00
2018-06-09T03:21:50.634Z,160.00
2018-06-09T03:22:50.634Z,172.00
2018-06-09T03:23:50.633Z,184.00
2018-06-09T03:24:50.631Z,200.00
2018-06-09T03:25:50.628Z,216.00
2018-06-09T03:26:50.626Z,232.00
2018-06-09T03:27:50.624Z,252.00
2018-06-09T03:28:50.623Z,276.00
2018-06-09T03:29:50.627Z,300.00
2018-06-09T03:30:50.627Z,316.00
2018-06-09T03:31:50.622Z,336.00
2018-06-09T03:32:50.621Z,360.00
2018-06-09T03:33:50.624Z,380.00
2018-06-09T03:34:50.625Z,404.00
2018-06-09T03:35:50.625Z,428.00
2018-06-09T03:36:50.623Z,448.00
2018-06-09T03:37:50.617Z,476.00
2018-06-09T03:38:50.618Z,500.00
2018-06-09T03:39:50.621Z,528.00
2018-06-09T03:40:50.625Z,556.00
2018-06-09T03:41:50.616Z,592.00
2018-06-09T03:42:50.613Z,628.00
2018-06-09T03:43:50.612Z,660.00
2018-06-09T03:44:50.612Z,688.00
2018-06-09T03:45:50.615Z,724.00
2018-06-09T03:46:50.616Z,752.00
2018-06-09T03:47:50.609Z,788.00
2018-06-09T03:48:50.642Z,824.00
2018-06-09T03:49:50.611Z,868.00
2018-06-09T03:50:50.611Z,904.00
2018-06-09T03:51:50.612Z,944.00
2018-06-09T03:52:50.612Z,992.00
2018-06-09T03:53:50.604Z,1052.00
2018-06-09T03:54:50.604Z,1108.00
2018-06-09T03:55:50.603Z,1164.00
2018-06-09T03:56:50.602Z,1216.00
2018-06-09T03:57:50.606Z,1260.00
2018-06-09T03:58:50.606Z,1304.00
2018-06-09T03:59:50.604Z,1352.00
2018-06-09T04:00:50.603Z,1404.00
2018-06-09T04:01:50.598Z,1464.00
2018-06-09T04:02:50.597Z,1540.00
2018-06-09T04:03:50.601Z,1620.00
2018-06-09T04:04:50.599Z,1708.00
2018-06-09T04:05:50.594Z,1796.00
2018-06-09T04:06:50.595Z,1888.00
2018-06-09T04:07:50.595Z,1972.00
2018-06-09T04:08:50.627Z,2044.00
2018-06-09T04:09:50.597Z,2112.00
2018-06-09T04:10:50.600Z,2188.00
2018-06-09T04:11:50.596Z,2284.00
2018-06-09T04:12:50.596Z,2396.00
2018-06-09T04:13:50.589Z,2512.00
2018-06-09T04:14:50.590Z,2632.00
2018-06-09T04:15:50.590Z,2748.00
2018-06-09T04:16:50.587Z,2876.00
2018-06-09T04:17:50.591Z,2984.00
2018-06-09T04:18:50.595Z,3080.00
2018-06-09T04:19:50.587Z,3188.00
2018-06-09T04:20:50.589Z,3284.00
2018-06-09T04:21:50.594Z,3372.00
2018-06-09T04:22:50.590Z,3464.00
2018-06-09T04:23:50.589Z,3544.00
2018-06-09T04:24:50.591Z,3584.00
2018-06-09T04:25:50.584Z,3596.00
2018-06-09T04:26:50.583Z,3608.00
2018-06-09T04:27:50.583Z,3640.00
2018-06-09T04:28:50.582Z,3680.00
2018-06-09T04:29:50.587Z,3720.00
2018-06-09T04:30:50.587Z,3764.00
2018-06-09T04:31:50.586Z,3828.00
2018-06-09T04:32:50.591Z,3876.00
2018-06-09T04:33:50.587Z,3908.00
2018-06-09T04:34:50.580Z,3972.00
2018-06-09T04:35:50.586Z,4060.00
2018-06-09T04:36:50.585Z,4152.00
2018-06-09T04:37:50.581Z,4188.00
2018-06-09T04:38:50.582Z,4188.00
2018-06-09T04:39:50.620Z,4152.00
2018-06-09T04:40:50.582Z,4104.00
2018-06-09T04:41:50.588Z,4080.00
2018-06-09T04:42:50.588Z,4024.00
2018-06-09T04:43:50.586Z,3944.00
2018-06-09T04:44:50.586Z,3868.00
2018-06-09T04:45:50.582Z,3780.00
2018-06-09T04:46:50.583Z,3712.00
2018-06-09T04:47:50.583Z,3748.00
2018-06-09T04:48:50.583Z,3780.00
2018-06-09T04:49:50.589Z,3828.00
2018-06-09T04:50:50.592Z,3808.00
2018-06-09T04:51:50.587Z,3804.00
2018-06-09T04:52:50.585Z,3816.00
2018-06-09T04:53:50.590Z,3876.00
2018-06-09T04:54:50.590Z,3956.00
2018-06-09T04:55:50.590Z,4076.00
2018-06-09T04:56:50.592Z,4232.00
2018-06-09T04:57:50.587Z,4416.00
2018-06-09T04:58:50.588Z,4624.00
2018-06-09T04:59:50.588Z,4884.00
2018-06-09T05:00:50.592Z,5172.00
2018-06-09T05:01:50.596Z,5444.00
2018-06-09T05:02:50.594Z,5656.00
2018-06-09T05:03:50.595Z,5868.00
2018-06-09T05:04:50.596Z,6160.00
2018-06-09T05:05:50.592Z,6476.00
2018-06-09T05:06:50.594Z,6920.00
2018-06-09T05:07:50.600Z,7596.00
2018-06-09T05:08:50.599Z,8352.00
2018-06-09T05:09:50.594Z,9020.00
2018-06-09T05:10:50.595Z,9416.00
2018-06-09T05:11:50.596Z,9596.00
2018-06-09T05:12:50.596Z,9588.00
2018-06-09T05:13:50.602Z,9576.00
2018-06-09T05:14:50.603Z,9344.00
2018-06-09T05:15:50.605Z,9344.00
2018-06-09T05:16:50.606Z,9736.00
2018-06-09T05:17:50.604Z,9932.00
2018-06-09T05:18:50.605Z,9980.00
2018-06-09T05:19:50.607Z,10688.00
2018-06-09T05:20:50.608Z,10876.00
2018-06-09T05:21:50.615Z,10360.00
2018-06-09T05:22:50.618Z,10632.00
2018-06-09T05:23:50.617Z,11424.00
2018-06-09T05:24:50.618Z,11956.00
2018-06-09T05:25:50.624Z,12008.00
2018-06-09T05:26:50.626Z,10796.00
2018-06-09T05:27:50.631Z,10300.00
2018-06-09T05:28:50.630Z,9028.00
2018-06-09T05:29:50.629Z,9212.00
2018-06-09T05:30:50.631Z,10812.00
2018-06-09T05:31:50.638Z,11056.00
2018-06-09T05:32:50.637Z,11804.00
2018-06-09T05:33:50.645Z,11632.00
2018-06-09T05:34:50.648Z,11364.00
2018-06-09T05:35:50.652Z,11316.00
2018-06-09T05:36:50.656Z,11732.00
2018-06-09T05:37:50.654Z,12668.00
2018-06-09T05:38:50.664Z,13112.00
2018-06-09T05:39:50.666Z,12612.00
2018-06-09T05:40:50.669Z,12972.00
2018-06-09T05:41:50.668Z,12308.00
2018-06-09T05:42:50.674Z,12168.00
2018-06-09T05:43:50.676Z,11156.00
2018-06-09T05:44:50.678Z,11012.00
2018-06-09T05:45:50.687Z,12696.00
2018-06-09T05:46:50.691Z,12576.00
2018-06-09T05:47:50.696Z,12804.00
2018-06-09T05:48:50.700Z,11308.00
2018-06-09T05:49:50.698Z,9916.00
2018-06-09T05:50:50.703Z,8832.00
2018-06-09T05:51:50.708Z,9040.00
2018-06-09T05:52:50.710Z,8996.00
2018-06-09T05:53:50.719Z,9216.00
2018-06-09T05:54:50.723Z,9408.00
2018-06-09T05:55:50.725Z,9416.00
2018-06-09T05:56:50.727Z,9244.00
2018-06-09T05:57:50.735Z,9104.00
2018-06-09T05:58:50.739Z,9136.00
2018-06-09T05:59:50.744Z,9656.00
2018-06-09T06:00:50.747Z,11160.00
2018-06-09T06:01:50.748Z,15008.00
2018-06-09T06:02:50.751Z,19360.00
2018-06-09T06:03:50.755Z,19360.00
2018-06-09T06:04:50.758Z,19040.00
2018-06-09T06:05:50.771Z,16576.00
2018-06-09T06:06:50.772Z,16320.00
2018-06-09T06:07:50.775Z,16288.00
2018-06-09T06:08:50.780Z,16768.00
2018-06-09T06:09:50.779Z,17888.00
2018-06-09T06:10:50.783Z,17248.00
2018-06-09T06:11:50.792Z,17184.00
2018-06-09T06:12:50.795Z,18016.00
2018-06-09T06:13:50.796Z,21568.00
2018-06-09T06:14:50.800Z,21344.00
2018-06-09T06:15:50.805Z,22880.00
2018-06-09T06:16:50.811Z,29056.00
2018-06-09T06:17:50.821Z,25184.00
2018-06-09T06:18:50.840Z,28192.00
2018-06-09T06:19:50.831Z,25888.00
2018-06-09T06:20:50.837Z,22912.00
2018-06-09T06:21:50.836Z,22624.00
2018-06-09T06:22:50.842Z,20768.00
2018-06-09T06:23:50.848Z,19520.00
2018-06-09T06:24:50.853Z,18144.00
2018-06-09T06:25:50.863Z,17504.00
2018-06-09T06:26:50.871Z,16896.00
2018-06-09T06:27:50.874Z,16864.00
2018-06-09T06:28:50.877Z,17248.00
2018-06-09T06:29:50.887Z,18432.00
2018-06-09T06:30:50.894Z,19776.00
2018-06-09T06:31:50.905Z,21920.00
2018-06-09T06:32:50.906Z,20992.00
2018-06-09T06:33:50.908Z,21024.00
2018-06-09T06:34:50.915Z,19456.00
2018-06-09T06:35:50.921Z,18240.00
2018-06-09T06:36:50.927Z,18720.00
2018-06-09T06:37:50.939Z,18048.00
2018-06-09T06:38:50.945Z,18304.00
2018-06-09T06:39:50.950Z,18528.00
2018-06-09T06:40:50.956Z,16800.00
2018-06-09T06:41:50.958Z,16768.00
2018-06-09T06:42:50.964Z,17760.00
2018-06-09T06:43:50.975Z,19488.00
2018-06-09T06:44:50.981Z,21312.00
2018-06-09T06:45:50.984Z,23104.00
2018-06-09T06:46:50.989Z,22912.00
2018-06-09T06:47:50.997Z,21440.00
2018-06-09T06:48:51.002Z,20736.00
2018-06-09T06:49:51.014Z,18208.00
2018-06-09T06:50:51.021Z,16928.00
2018-06-09T06:51:51.026Z,16160.00
2018-06-09T06:52:51.032Z,15404.00
2018-06-09T06:53:51.033Z,15100.00
2018-06-09T06:54:51.042Z,14992.00
2018-06-09T06:55:51.048Z,14844.00
2018-06-09T06:56:51.053Z,14492.00
2018-06-09T06:57:51.065Z,14104.00
2018-06-09T06:58:51.072Z,13832.00
2018-06-09T06:59:51.075Z,13772.00
2018-06-09T07:00:51.080Z,14056.00
2018-06-09T07:01:51.090Z,15968.00
2018-06-09T07:02:51.097Z,15636.00
2018-06-09T07:03:51.102Z,16384.00
2018-06-09T07:04:51.107Z,16992.00
2018-06-09T07:05:51.113Z,18528.00
2018-06-09T07:06:51.116Z,20608.00
2018-06-09T07:07:51.125Z,17056.00
2018-06-09T07:08:51.129Z,17472.00
2018-06-09T07:09:51.138Z,17472.00
2018-06-09T07:10:51.146Z,22560.00
2018-06-09T07:11:51.151Z,24512.00
2018-06-09T07:12:51.156Z,19520.00
2018-06-09T07:13:51.158Z,32288.00
2018-06-09T07:14:51.165Z,38816.00
2018-06-09T07:15:51.175Z,44384.00
2018-06-09T07:16:51.181Z,50592.00
2018-06-09T07:17:51.182Z,47520.00
2018-06-09T07:18:51.191Z,45216.00
2018-06-09T07:19:51.196Z,47328.00
2018-06-09T07:20:51.202Z,62112.00
2018-06-09T07:21:51.214Z,44992.00
2018-06-09T07:22:51.221Z,46400.00
2018-06-09T07:23:51.232Z,37920.00
2018-06-09T07:24:51.235Z,39680.00
2018-06-09T07:25:51.239Z,40640.00
2018-06-09T07:26:51.247Z,47808.00
2018-06-09T07:27:51.255Z,35648.00
2018-06-09T07:28:51.263Z,29728.00
2018-06-09T07:29:51.276Z,21760.00
2018-06-09T07:30:51.289Z,20512.00
2018-06-09T07:31:51.289Z,20768.00
2018-06-09T07:32:51.298Z,20320.00
2018-06-09T07:33:51.311Z,20384.00
2018-06-09T07:34:51.320Z,21440.00
2018-06-09T07:35:51.331Z,23424.00
2018-06-09T07:36:51.335Z,18976.00
2018-06-09T07:37:51.340Z,18208.00
2018-06-09T07:38:51.350Z,17824.00
2018-06-09T07:39:51.361Z,17440.00
2018-06-09T07:40:51.366Z,16960.00
2018-06-09T07:41:51.379Z,15936.00
2018-06-09T07:42:51.388Z,15420.00
2018-06-09T07:43:51.397Z,15496.00
2018-06-09T07:44:51.404Z,15776.00
2018-06-09T07:45:51.409Z,16256.00
2018-06-09T07:46:51.419Z,17216.00
2018-06-09T07:47:51.446Z,17408.00
2018-06-09T07:48:51.439Z,17600.00
2018-06-09T07:49:51.442Z,18080.00
2018-06-09T07:50:51.450Z,22624.00
2018-06-09T07:51:51.458Z,19776.00
2018-06-09T07:52:51.466Z,19488.00
2018-06-09T07:53:51.479Z,19168.00
2018-06-09T07:54:51.487Z,21856.00
2018-06-09T07:55:51.496Z,20992.00
2018-06-09T07:56:51.503Z,21120.00
2018-06-09T07:57:51.507Z,22304.00
2018-06-09T07:58:51.520Z,22880.00
2018-06-09T07:59:51.528Z,22464.00
2018-06-09T08:00:51.533Z,20608.00
2018-06-09T08:01:51.544Z,19904.00
2018-06-09T08:02:51.552Z,19712.00
2018-06-09T08:03:51.556Z,17600.00
2018-06-09T08:04:51.563Z,16128.00
2018-06-09T08:05:51.576Z,15200.00
2018-06-09T08:06:51.595Z,14468.00
2018-06-09T08:07:51.592Z,13964.00
2018-06-09T08:08:51.599Z,13668.00
2018-06-09T08:09:51.606Z,13700.00
2018-06-09T08:10:51.611Z,14040.00
2018-06-09T08:11:51.620Z,14620.00
2018-06-09T08:12:51.626Z,15360.00
2018-06-09T08:13:51.640Z,16352.00
2018-06-09T08:14:51.647Z,16672.00
2018-06-09T08:15:51.655Z,16832.00
2018-06-09T08:16:51.666Z,15096.00
2018-06-09T08:17:51.665Z,14984.00
2018-06-09T08:18:51.674Z,15528.00
2018-06-09T08:19:51.689Z,16192.00
2018-06-09T08:20:51.694Z,16416.00
2018-06-09T08:21:51.698Z,16544.00
2018-06-09T08:22:51.704Z,17184.00
2018-06-09T08:23:51.712Z,17120.00
2018-06-09T08:24:51.719Z,17216.00
2018-06-09T08:25:51.731Z,17376.00
2018-06-09T08:26:51.738Z,17216.00
2018-06-09T08:27:51.746Z,17632.00
2018-06-09T08:28:51.755Z,19264.00
2018-06-09T08:29:51.757Z,18528.00
2018-06-09T08:30:51.764Z,19008.00
2018-06-09T08:31:51.773Z,18912.00
2018-06-09T08:32:51.779Z,19072.00
2018-06-09T08:33:51.791Z,19136.00
2018-06-09T08:34:51.800Z,19072.00
2018-06-09T08:35:51.803Z,19296.00
2018-06-09T08:36:51.810Z,21152.00
2018-06-09T08:37:51.821Z,21184.00
2018-06-09T08:38:51.831Z,20448.00
2018-06-09T08:39:51.839Z,27040.00
2018-06-09T08:40:51.844Z,18848.00
2018-06-09T08:41:51.848Z,18176.00
2018-06-09T08:42:51.856Z,17664.00
2018-06-09T08:43:51.866Z,17536.00
2018-06-09T08:44:51.875Z,18752.00
2018-06-09T08:45:51.884Z,16800.00
2018-06-09T08:46:51.894Z,16928.00
2018-06-09T08:47:51.901Z,16768.00
2018-06-09T08:48:51.909Z,16928.00
2018-06-09T08:49:51.916Z,17024.00
2018-06-09T08:50:51.929Z,17120.00
2018-06-09T08:51:51.933Z,17536.00
2018-06-09T08:52:51.941Z,17536.00
2018-06-09T08:53:51.945Z,17696.00
2018-06-09T08:54:51.953Z,18048.00
2018-06-09T08:55:51.961Z,18304.00
2018-06-09T08:56:52.033Z,19040.00
2018-06-09T08:57:51.983Z,19520.00
2018-06-09T08:58:51.993Z,18656.00
2018-06-09T08:59:51.999Z,18176.00
2018-06-09T09:00:52.006Z,18496.00
2018-06-09T09:01:52.009Z,19456.00
2018-06-09T09:02:52.016Z,22016.00
2018-06-09T09:03:52.025Z,23616.00
2018-06-09T09:04:52.033Z,23200.00
2018-06-09T09:05:52.044Z,24128.00
2018-06-09T09:06:52.055Z,23264.00
2018-06-09T09:07:52.056Z,27616.00
2018-06-09T09:08:52.064Z,20608.00
2018-06-09T09:09:52.077Z,20160.00
2018-06-09T09:10:52.089Z,20800.00
2018-06-09T09:11:52.146Z,24480.00
2018-06-09T09:12:52.103Z,41280.00
2018-06-09T09:13:52.107Z,50912.00
2018-06-09T09:14:52.115Z,28896.00
2018-06-09T09:15:52.125Z,26528.00
2018-06-09T09:16:52.138Z,24192.00
2018-06-09T09:17:52.149Z,24544.00
2018-06-09T09:18:52.159Z,27968.00
2018-06-09T09:19:52.168Z,33600.00
2018-06-09T09:20:52.177Z,51168.00
2018-06-09T09:21:52.183Z,48832.00
2018-06-09T09:22:52.193Z,40960.00
2018-06-09T09:23:52.208Z,49120.00
2018-06-09T09:24:52.220Z,54816.00
2018-06-09T09:25:52.279Z,31936.00
2018-06-09T09:26:52.238Z,39776.00
2018-06-09T09:27:52.251Z,31040.00
2018-06-09T09:28:52.266Z,30144.00
2018-06-09T09:29:52.281Z,27776.00
2018-06-09T09:30:52.293Z,30528.00
2018-06-09T09:31:52.307Z,27776.00
2018-06-09T09:32:52.318Z,27648.00
2018-06-09T09:33:52.328Z,30272.00
2018-06-09T09:34:52.341Z,33568.00
2018-06-09T09:35:52.354Z,28672.00
2018-06-09T09:36:52.367Z,27104.00
2018-06-09T09:37:52.384Z,30400.00
2018-06-09T09:38:52.398Z,48224.00
2018-06-09T09:39:52.407Z,41344.00
2018-06-09T09:40:52.419Z,38432.00
2018-06-09T09:41:52.436Z,31872.00
2018-06-09T09:42:52.451Z,38496.00
2018-06-09T09:43:52.472Z,48992.00
2018-06-09T09:44:52.477Z,47456.00
2018-06-09T09:45:52.486Z,68192.00
2018-06-09T09:46:52.499Z,48448.00
2018-06-09T09:47:52.513Z,83616.00
2018-06-09T09:48:52.524Z,45664.00
2018-06-09T09:49:52.543Z,36864.00
2018-06-09T09:50:52.556Z,59616.00
2018-06-09T09:51:52.570Z,71968.00
2018-06-09T09:52:52.583Z,47840.00
2018-06-09T09:53:52.593Z,45888.00
2018-06-09T09:54:52.633Z,70336.00
2018-06-09T09:55:52.626Z,78400.00
2018-06-09T09:56:52.642Z,68960.00
2018-06-09T09:57:52.651Z,72320.00
2018-06-09T09:58:52.666Z,66880.00
2018-06-09T09:59:52.686Z,78624.00
2018-06-09T10:00:52.696Z,53984.00
2018-06-09T10:01:52.724Z,56896.00
2018-06-09T10:02:52.732Z,61952.00
2018-06-09T10:03:52.748Z,55264.00
2018-06-09T10:04:52.763Z,55296.00
2018-06-09T10:05:52.774Z,70112.00
2018-06-09T10:06:52.792Z,46784.00
2018-06-09T10:07:52.807Z,39712.00
2018-06-09T10:08:52.821Z,44448.00
2018-06-09T10:09:52.842Z,67040.00
2018-06-09T10:10:52.859Z,51072.00
2018-06-09T10:11:52.874Z,75648.00
2018-06-09T10:12:52.893Z,49856.00
2018-06-09T10:13:52.906Z,66240.00
2018-06-09T10:14:52.923Z,68224.00
2018-06-09T10:15:52.939Z,54656.00
2018-06-09T10:16:52.955Z,45792.00
2018-06-09T10:17:52.966Z,52512.00
2018-06-09T10:18:52.983Z,52224.00
2018-06-09T10:19:53.001Z,45312.00
2018-06-09T10:20:53.016Z,62528.00
2018-06-09T10:21:53.041Z,66912.00
2018-06-09T10:22:53.059Z,54944.00
2018-06-09T10:23:53.072Z,48800.00
2018-06-09T10:24:53.089Z,51072.00
2018-06-09T10:25:53.100Z,43552.00
2018-06-09T10:26:53.117Z,64576.00
2018-06-09T10:27:53.138Z,50400.00
2018-06-09T10:28:53.155Z,54464.00
2018-06-09T10:29:53.167Z,52160.00
2018-06-09T10:30:53.184Z,59776.00
2018-06-09T10:31:53.201Z,64160.00
2018-06-09T10:32:53.269Z,51872.00
2018-06-09T10:33:53.239Z,45824.00
2018-06-09T10:34:53.257Z,50944.00
2018-06-09T10:35:53.274Z,41184.00
2018-06-09T10:36:53.289Z,44064.00
2018-06-09T10:37:53.303Z,45856.00
2018-06-09T10:38:53.322Z,55584.00
2018-06-09T10:39:53.337Z,59968.00
2018-06-09T10:40:53.353Z,62080.00
2018-06-09T10:41:53.375Z,59840.00
2018-06-09T10:42:53.401Z,60416.00
2018-06-09T10:43:53.405Z,59168.00
2018-06-09T10:44:53.425Z,60128.00
2018-06-09T10:45:53.449Z,62496.00
2018-06-09T10:46:53.462Z,60512.00
2018-06-09T10:47:53.479Z,60096.00
2018-06-09T10:48:53.497Z,57440.00
2018-06-09T10:49:53.510Z,53568.00
2018-06-09T10:50:53.530Z,49184.00
2018-06-09T10:51:53.543Z,58240.00
2018-06-09T10:52:53.566Z,61856.00
2018-06-09T10:53:53.585Z,64192.00
2018-06-09T10:54:53.603Z,66528.00
2018-06-09T10:55:53.623Z,67136.00
2018-06-09T10:56:53.637Z,65312.00
2018-06-09T10:57:53.650Z,66048.00
2018-06-09T10:58:53.668Z,65984.00
2018-06-09T10:59:53.691Z,65472.00
2018-06-09T11:00:53.708Z,67488.00
2018-06-09T11:01:53.722Z,67424.00
2018-06-09T11:02:53.740Z,70496.00
2018-06-09T11:03:53.758Z,70432.00
2018-06-09T11:04:53.775Z,71264.00
2018-06-09T11:05:53.797Z,72032.00
2018-06-09T11:06:53.818Z,74240.00
2018-06-09T11:07:53.834Z,75872.00
2018-06-09T11:08:53.852Z,76576.00
2018-06-09T11:09:53.869Z,79456.00
2018-06-09T11:10:53.885Z,83168.00
2018-06-09T11:11:53.903Z,82464.00
2018-06-09T11:12:53.920Z,83360.00
2018-06-09T11:13:53.943Z,83008.00
2018-06-09T11:14:53.962Z,84896.00
2018-06-09T11:15:53.976Z,86560.00
2018-06-09T11:16:53.999Z,83904.00
2018-06-09T11:17:54.017Z,84960.00
2018-06-09T11:18:54.035Z,73600.00
2018-06-09T11:19:54.052Z,38048.00
2018-06-09T11:20:54.070Z,18272.00
2018-06-09T11:21:54.083Z,16972.00
2018-06-09T11:22:54.099Z,16640.00
2018-06-09T11:23:54.116Z,16372.00
2018-06-09T11:24:54.132Z,16096.00
2018-06-09T11:25:54.155Z,15796.00
2018-06-09T11:26:54.170Z,15496.00
2018-06-09T11:27:54.185Z,15336.00
2018-06-09T11:28:54.200Z,15204.00
2018-06-09T11:29:54.211Z,15116.00
2018-06-09T11:30:54.226Z,15044.00
2018-06-09T11:31:54.245Z,14988.00
2018-06-09T11:32:54.259Z,14960.00
2018-06-09T11:33:54.269Z,14900.00
2018-06-09T11:34:54.283Z,14752.00
2018-06-09T11:35:54.298Z,14600.00
2018-06-09T11:36:54.310Z,14416.00
2018-06-09T11:37:54.329Z,14200.00
2018-06-09T11:38:54.342Z,14052.00
2018-06-09T11:39:54.355Z,13940.00
2018-06-09T11:40:54.368Z,13860.00
2018-06-09T11:41:54.374Z,13832.00
2018-06-09T11:42:54.390Z,13724.00
2018-06-09T11:43:54.399Z,13612.00
2018-06-09T11:44:54.410Z,13452.00
2018-06-09T11:45:54.425Z,13284.00
2018-06-09T11:46:54.441Z,13092.00
2018-06-09T11:47:54.446Z,12896.00
2018-06-09T11:48:54.456Z,12672.00
2018-06-09T11:49:54.472Z,12532.00
2018-06-09T11:50:54.483Z,12432.00
2018-06-09T11:51:54.499Z,12372.00
2018-06-09T11:52:54.505Z,12368.00
2018-06-09T11:53:54.507Z,12348.00
2018-06-09T11:54:54.517Z,12300.00
2018-06-09T11:55:54.527Z,12248.00
2018-06-09T11:56:54.536Z,12196.00
2018-06-09T11:57:54.553Z,12088.00
2018-06-09T11:58:54.561Z,12028.00
2018-06-09T11:59:54.572Z,11944.00
2018-06-09T12:00:54.579Z,11840.00
2018-06-09T12:01:54.585Z,11772.00
2018-06-09T12:02:54.594Z,11700.00
2018-06-09T12:03:54.607Z,11620.00
2018-06-09T12:04:54.615Z,11572.00
2018-06-09T12:05:54.621Z,11520.00
2018-06-09T12:06:54.629Z,11488.00
2018-06-09T12:07:54.639Z,11428.00
2018-06-09T12:08:54.646Z,11376.00
2018-06-09T12:09:54.660Z,11332.00
2018-06-09T12:10:54.670Z,11260.00
2018-06-09T12:11:54.673Z,11156.00